sensor_id;sensor_type;location;lat;lon;timestamp;P1;durP1;ratioP1;P2;durP2;ratioP2
16270;SDS011;8243;49.048;8.396;2023-06-22T00:02:13;5.90;;;5.30;;
16270;SDS011;8243;49.048;8.396;2023-06-22T00:04:39;5.43;;;4.93;;
16270;SDS011;8243;49.048;8.396;2023-06-22T00:07:04;6.23;;;4.73;;
16270;SDS011;8243;49.048;8.396;2023-06-22T00:09:31;6.80;;;5.43;;
16270;SDS011;8243;49.048;8.396;2023-06-22T00:11:57;5.40;;;4.90;;
16270;SDS011;8243;49.048;8.396;2023-06-22T00:14:22;5.60;;;5.03;;
16270;SDS011;8243;49.048;8.396;2023-06-22T00:16:48;6.60;;;5.37;;
16270;SDS011;8243;49.048;8.396;2023-06-22T00:19:14;5.70;;;5.20;;
16270;SDS011;8243;49.048;8.396;2023-06-22T00:21:40;5.80;;;5.17;;
16270;SDS011;8243;49.048;8.396;2023-06-22T00:24:07;6.20;;;5.57;;
16270;SDS011;8243;49.048;8.396;2023-06-22T00:26:33;6.33;;;5.43;;
16270;SDS011;8243;49.048;8.396;2023-06-22T00:29:00;8.10;;;5.40;;
16270;SDS011;8243;49.048;8.396;2023-06-22T00:31:25;5.90;;;5.33;;
16270;SDS011;8243;49.048;8.396;2023-06-22T00:33:51;6.40;;;5.90;;
16270;SDS011;8243;49.048;8.396;2023-06-22T00:36:16;6.97;;;6.20;;
16270;SDS011;8243;49.048;8.396;2023-06-22T00:38:43;6.97;;;6.27;;
16270;SDS011;8243;49.048;8.396;2023-06-22T00:41:09;8.27;;;7.10;;
16270;SDS011;8243;49.048;8.396;2023-06-22T00:43:54;8.40;;;7.60;;
16270;SDS011;8243;49.048;8.396;2023-06-22T00:46:25;9.93;;;7.33;;
16270;SDS011;8243;49.048;8.396;2023-06-22T00:48:58;8.70;;;7.60;;
16270;SDS011;8243;49.048;8.396;2023-06-22T00:51:26;11.13;;;7.50;;
16270;SDS011;8243;49.048;8.396;2023-06-22T00:53:51;9.80;;;8.73;;
16270;SDS011;8243;49.048;8.396;2023-06-22T00:56:18;9.37;;;8.37;;
16270;SDS011;8243;49.048;8.396;2023-06-22T00:58:45;10.30;;;8.93;;
16270;SDS011;8243;49.048;8.396;2023-06-22T01:01:12;9.83;;;8.90;;
16270;SDS011;8243;49.048;8.396;2023-06-22T01:03:41;9.83;;;8.83;;
16270;SDS011;8243;49.048;8.396;2023-06-22T01:06:08;10.50;;;9.47;;
16270;SDS011;8243;49.048;8.396;2023-06-22T01:08:42;10.63;;;9.63;;
16270;SDS011;8243;49.048;8.396;2023-06-22T01:11:17;11.43;;;10.20;;
16270;SDS011;8243;49.048;8.396;2023-06-22T01:13:50;11.97;;;10.57;;
16270;SDS011;8243;49.048;8.396;2023-06-22T01:18:49;11.63;;;10.43;;
16270;SDS011;8243;49.048;8.396;2023-06-22T01:21:19;13.70;;;11.33;;
16270;SDS011;8243;49.048;8.396;2023-06-22T01:23:59;13.57;;;10.77;;
16270;SDS011;8243;49.048;8.396;2023-06-22T01:26:47;11.33;;;9.90;;
16270;SDS011;8243;49.048;8.396;2023-06-22T01:29:30;11.10;;;10.10;;
16270;SDS011;8243;49.048;8.396;2023-06-22T01:32:01;12.67;;;11.37;;
16270;SDS011;8243;49.048;8.396;2023-06-22T01:34:30;12.23;;;11.03;;
16270;SDS011;8243;49.048;8.396;2023-06-22T01:36:56;11.80;;;10.60;;
16270;SDS011;8243;49.048;8.396;2023-06-22T01:39:23;11.90;;;10.80;;
16270;SDS011;8243;49.048;8.396;2023-06-22T01:41:50;13.13;;;10.87;;
16270;SDS011;8243;49.048;8.396;2023-06-22T01:44:16;12.10;;;11.00;;
16270;SDS011;8243;49.048;8.396;2023-06-22T01:46:42;13.27;;;10.70;;
16270;SDS011;8243;49.048;8.396;2023-06-22T01:49:09;12.80;;;11.20;;
16270;SDS011;8243;49.048;8.396;2023-06-22T01:51:35;12.07;;;10.97;;
16270;SDS011;8243;49.048;8.396;2023-06-22T01:54:01;12.87;;;11.20;;
16270;SDS011;8243;49.048;8.396;2023-06-22T01:56:27;13.27;;;12.07;;
16270;SDS011;8243;49.048;8.396;2023-06-22T02:01:31;13.07;;;11.67;;
16270;SDS011;8243;49.048;8.396;2023-06-22T02:04:06;12.90;;;11.60;;
16270;SDS011;8243;49.048;8.396;2023-06-22T02:06:38;13.17;;;11.87;;
16270;SDS011;8243;49.048;8.396;2023-06-22T02:09:11;12.30;;;11.20;;
16270;SDS011;8243;49.048;8.396;2023-06-22T02:11:40;16.50;;;11.73;;
16270;SDS011;8243;49.048;8.396;2023-06-22T02:14:08;14.23;;;11.57;;
16270;SDS011;8243;49.048;8.396;2023-06-22T02:16:34;14.57;;;12.60;;
16270;SDS011;8243;49.048;8.396;2023-06-22T02:19:01;13.03;;;11.83;;
16270;SDS011;8243;49.048;8.396;2023-06-22T02:21:31;12.60;;;11.30;;
16270;SDS011;8243;49.048;8.396;2023-06-22T02:23:57;12.60;;;11.23;;
16270;SDS011;8243;49.048;8.396;2023-06-22T02:26:23;13.10;;;11.17;;
16270;SDS011;8243;49.048;8.396;2023-06-22T02:28:50;13.07;;;11.53;;
16270;SDS011;8243;49.048;8.396;2023-06-22T02:31:16;13.57;;;12.23;;
16270;SDS011;8243;49.048;8.396;2023-06-22T02:33:42;13.23;;;11.80;;
16270;SDS011;8243;49.048;8.396;2023-06-22T02:36:08;12.77;;;11.50;;
16270;SDS011;8243;49.048;8.396;2023-06-22T02:38:38;13.40;;;12.07;;
16270;SDS011;8243;49.048;8.396;2023-06-22T02:41:13;13.53;;;11.70;;
16270;SDS011;8243;49.048;8.396;2023-06-22T02:43:45;17.27;;;12.10;;
16270;SDS011;8243;49.048;8.396;2023-06-22T02:46:13;13.87;;;12.43;;
16270;SDS011;8243;49.048;8.396;2023-06-22T02:48:39;13.17;;;11.67;;
16270;SDS011;8243;49.048;8.396;2023-06-22T02:51:05;13.50;;;12.20;;
16270;SDS011;8243;49.048;8.396;2023-06-22T02:53:38;13.93;;;12.60;;
16270;SDS011;8243;49.048;8.396;2023-06-22T02:56:04;14.40;;;12.37;;
16270;SDS011;8243;49.048;8.396;2023-06-22T02:58:30;14.17;;;12.43;;
16270;SDS011;8243;49.048;8.396;2023-06-22T03:01:03;13.73;;;12.33;;
16270;SDS011;8243;49.048;8.396;2023-06-22T03:03:29;14.27;;;12.90;;
16270;SDS011;8243;49.048;8.396;2023-06-22T03:05:55;17.67;;;12.77;;
16270;SDS011;8243;49.048;8.396;2023-06-22T03:08:21;14.80;;;12.60;;
16270;SDS011;8243;49.048;8.396;2023-06-22T03:10:46;14.10;;;12.67;;
16270;SDS011;8243;49.048;8.396;2023-06-22T03:13:14;15.80;;;13.03;;
16270;SDS011;8243;49.048;8.396;2023-06-22T03:15:40;13.77;;;12.37;;
16270;SDS011;8243;49.048;8.396;2023-06-22T03:18:05;12.70;;;11.50;;
16270;SDS011;8243;49.048;8.396;2023-06-22T03:20:31;13.50;;;12.10;;
16270;SDS011;8243;49.048;8.396;2023-06-22T03:22:58;14.23;;;12.47;;
16270;SDS011;8243;49.048;8.396;2023-06-22T03:25:24;13.77;;;12.30;;
16270;SDS011;8243;49.048;8.396;2023-06-22T03:27:50;14.20;;;12.30;;
16270;SDS011;8243;49.048;8.396;2023-06-22T03:30:15;12.63;;;11.50;;
16270;SDS011;8243;49.048;8.396;2023-06-22T03:32:41;13.43;;;12.03;;
16270;SDS011;8243;49.048;8.396;2023-06-22T03:35:08;14.33;;;11.63;;
16270;SDS011;8243;49.048;8.396;2023-06-22T03:37:35;12.20;;;11.03;;
16270;SDS011;8243;49.048;8.396;2023-06-22T03:40:01;12.63;;;11.23;;
16270;SDS011;8243;49.048;8.396;2023-06-22T03:42:30;12.80;;;11.50;;
16270;SDS011;8243;49.048;8.396;2023-06-22T03:44:55;12.93;;;11.00;;
16270;SDS011;8243;49.048;8.396;2023-06-22T03:47:21;12.47;;;10.60;;
16270;SDS011;8243;49.048;8.396;2023-06-22T03:49:47;14.70;;;11.37;;
16270;SDS011;8243;49.048;8.396;2023-06-22T03:52:13;11.53;;;10.07;;
16270;SDS011;8243;49.048;8.396;2023-06-22T03:54:38;11.90;;;9.23;;
16270;SDS011;8243;49.048;8.396;2023-06-22T03:57:04;11.23;;;10.20;;
16270;SDS011;8243;49.048;8.396;2023-06-22T03:59:30;10.70;;;9.57;;
16270;SDS011;8243;49.048;8.396;2023-06-22T04:01:56;11.00;;;9.90;;
16270;SDS011;8243;49.048;8.396;2023-06-22T04:04:21;11.33;;;10.03;;
16270;SDS011;8243;49.048;8.396;2023-06-22T04:06:47;10.90;;;9.70;;
16270;SDS011;8243;49.048;8.396;2023-06-22T04:09:13;11.30;;;9.57;;
16270;SDS011;8243;49.048;8.396;2023-06-22T04:11:38;11.27;;;9.77;;
16270;SDS011;8243;49.048;8.396;2023-06-22T04:14:04;10.63;;;9.57;;
16270;SDS011;8243;49.048;8.396;2023-06-22T04:16:29;9.43;;;8.53;;
16270;SDS011;8243;49.048;8.396;2023-06-22T04:18:55;10.00;;;9.07;;
16270;SDS011;8243;49.048;8.396;2023-06-22T04:21:20;12.53;;;8.87;;
16270;SDS011;8243;49.048;8.396;2023-06-22T04:23:46;9.80;;;8.67;;
16270;SDS011;8243;49.048;8.396;2023-06-22T04:26:12;10.37;;;8.93;;
16270;SDS011;8243;49.048;8.396;2023-06-22T04:28:39;9.73;;;8.60;;
16270;SDS011;8243;49.048;8.396;2023-06-22T04:31:05;9.37;;;8.53;;
16270;SDS011;8243;49.048;8.396;2023-06-22T04:33:30;9.53;;;8.07;;
16270;SDS011;8243;49.048;8.396;2023-06-22T04:35:56;8.60;;;7.80;;
16270;SDS011;8243;49.048;8.396;2023-06-22T04:38:23;9.83;;;8.80;;
16270;SDS011;8243;49.048;8.396;2023-06-22T04:40:49;8.97;;;8.07;;
16270;SDS011;8243;49.048;8.396;2023-06-22T04:43:15;8.57;;;7.77;;
16270;SDS011;8243;49.048;8.396;2023-06-22T04:45:43;9.80;;;7.87;;
16270;SDS011;8243;49.048;8.396;2023-06-22T04:48:09;10.20;;;8.00;;
16270;SDS011;8243;49.048;8.396;2023-06-22T04:50:35;10.57;;;8.73;;
16270;SDS011;8243;49.048;8.396;2023-06-22T04:53:04;9.03;;;8.03;;
16270;SDS011;8243;49.048;8.396;2023-06-22T04:55:30;8.63;;;7.77;;
16270;SDS011;8243;49.048;8.396;2023-06-22T04:57:57;8.77;;;7.83;;
16270;SDS011;8243;49.048;8.396;2023-06-22T05:00:30;10.83;;;8.50;;
16270;SDS011;8243;49.048;8.396;2023-06-22T05:02:56;10.50;;;8.10;;
16270;SDS011;8243;49.048;8.396;2023-06-22T05:05:23;8.57;;;7.70;;
16270;SDS011;8243;49.048;8.396;2023-06-22T05:07:50;8.90;;;8.00;;
16270;SDS011;8243;49.048;8.396;2023-06-22T05:10:18;8.70;;;7.80;;
16270;SDS011;8243;49.048;8.396;2023-06-22T05:12:44;9.03;;;8.07;;
16270;SDS011;8243;49.048;8.396;2023-06-22T05:15:11;8.33;;;7.57;;
16270;SDS011;8243;49.048;8.396;2023-06-22T05:17:37;12.60;;;8.10;;
16270;SDS011;8243;49.048;8.396;2023-06-22T05:20:08;9.03;;;7.43;;
16270;SDS011;8243;49.048;8.396;2023-06-22T05:22:34;7.57;;;6.77;;
16270;SDS011;8243;49.048;8.396;2023-06-22T05:25:00;9.90;;;7.63;;
16270;SDS011;8243;49.048;8.396;2023-06-22T05:27:25;9.00;;;7.70;;
16270;SDS011;8243;49.048;8.396;2023-06-22T05:29:51;11.03;;;7.33;;
16270;SDS011;8243;49.048;8.396;2023-06-22T05:32:17;9.83;;;7.47;;
16270;SDS011;8243;49.048;8.396;2023-06-22T05:34:43;8.33;;;7.53;;
16270;SDS011;8243;49.048;8.396;2023-06-22T05:37:09;11.30;;;7.43;;
16270;SDS011;8243;49.048;8.396;2023-06-22T05:39:34;8.40;;;7.40;;
16270;SDS011;8243;49.048;8.396;2023-06-22T05:42:03;12.90;;;8.00;;
16270;SDS011;8243;49.048;8.396;2023-06-22T05:44:32;8.87;;;7.77;;
16270;SDS011;8243;49.048;8.396;2023-06-22T05:46:58;8.27;;;7.47;;
16270;SDS011;8243;49.048;8.396;2023-06-22T05:49:24;8.37;;;7.57;;
16270;SDS011;8243;49.048;8.396;2023-06-22T05:51:54;11.13;;;7.30;;
16270;SDS011;8243;49.048;8.396;2023-06-22T05:54:21;11.90;;;8.47;;
16270;SDS011;8243;49.048;8.396;2023-06-22T05:56:46;10.00;;;7.30;;
16270;SDS011;8243;49.048;8.396;2023-06-22T05:59:12;13.13;;;7.60;;
16270;SDS011;8243;49.048;8.396;2023-06-22T06:01:37;13.27;;;8.10;;
16270;SDS011;8243;49.048;8.396;2023-06-22T06:04:04;8.50;;;7.70;;
16270;SDS011;8243;49.048;8.396;2023-06-22T06:06:33;10.03;;;7.23;;
16270;SDS011;8243;49.048;8.396;2023-06-22T06:08:59;14.07;;;7.90;;
16270;SDS011;8243;49.048;8.396;2023-06-22T06:11:25;9.80;;;8.00;;
16270;SDS011;8243;49.048;8.396;2023-06-22T06:13:51;10.27;;;8.03;;
16270;SDS011;8243;49.048;8.396;2023-06-22T06:16:16;10.30;;;7.50;;
16270;SDS011;8243;49.048;8.396;2023-06-22T06:18:42;8.50;;;7.60;;
16270;SDS011;8243;49.048;8.396;2023-06-22T06:21:07;8.17;;;7.33;;
16270;SDS011;8243;49.048;8.396;2023-06-22T06:23:33;7.83;;;7.10;;
16270;SDS011;8243;49.048;8.396;2023-06-22T06:25:58;9.07;;;7.70;;
16270;SDS011;8243;49.048;8.396;2023-06-22T06:28:24;9.47;;;7.70;;
16270;SDS011;8243;49.048;8.396;2023-06-22T06:30:50;10.07;;;6.77;;
16270;SDS011;8243;49.048;8.396;2023-06-22T06:33:16;9.27;;;6.80;;
16270;SDS011;8243;49.048;8.396;2023-06-22T06:35:42;7.97;;;7.13;;
16270;SDS011;8243;49.048;8.396;2023-06-22T06:38:08;7.60;;;6.90;;
16270;SDS011;8243;49.048;8.396;2023-06-22T06:40:33;8.50;;;6.87;;
16270;SDS011;8243;49.048;8.396;2023-06-22T06:42:59;9.57;;;6.90;;
16270;SDS011;8243;49.048;8.396;2023-06-22T06:45:24;7.60;;;6.93;;
16270;SDS011;8243;49.048;8.396;2023-06-22T06:47:52;9.13;;;6.40;;
16270;SDS011;8243;49.048;8.396;2023-06-22T06:50:17;8.40;;;6.67;;
16270;SDS011;8243;49.048;8.396;2023-06-22T06:52:43;10.00;;;6.70;;
16270;SDS011;8243;49.048;8.396;2023-06-22T06:55:09;7.40;;;6.60;;
16270;SDS011;8243;49.048;8.396;2023-06-22T06:57:38;7.70;;;6.83;;
16270;SDS011;8243;49.048;8.396;2023-06-22T07:00:07;7.73;;;6.60;;
16270;SDS011;8243;49.048;8.396;2023-06-22T07:02:40;8.97;;;6.83;;
16270;SDS011;8243;49.048;8.396;2023-06-22T07:05:10;8.80;;;7.17;;
16270;SDS011;8243;49.048;8.396;2023-06-22T07:07:36;9.13;;;6.40;;
16270;SDS011;8243;49.048;8.396;2023-06-22T07:10:04;8.37;;;6.77;;
16270;SDS011;8243;49.048;8.396;2023-06-22T07:12:30;8.20;;;6.77;;
16270;SDS011;8243;49.048;8.396;2023-06-22T07:15:06;9.57;;;6.93;;
16270;SDS011;8243;49.048;8.396;2023-06-22T07:17:33;7.13;;;6.10;;
16270;SDS011;8243;49.048;8.396;2023-06-22T07:19:59;8.07;;;6.47;;
16270;SDS011;8243;49.048;8.396;2023-06-22T07:22:25;9.30;;;6.67;;
16270;SDS011;8243;49.048;8.396;2023-06-22T07:24:51;8.07;;;6.33;;
16270;SDS011;8243;49.048;8.396;2023-06-22T07:27:16;7.23;;;6.53;;
16270;SDS011;8243;49.048;8.396;2023-06-22T07:29:44;10.40;;;6.60;;
16270;SDS011;8243;49.048;8.396;2023-06-22T07:32:09;8.07;;;6.40;;
16270;SDS011;8243;49.048;8.396;2023-06-22T07:34:35;7.97;;;6.43;;
16270;SDS011;8243;49.048;8.396;2023-06-22T07:37:00;7.03;;;6.00;;
16270;SDS011;8243;49.048;8.396;2023-06-22T07:39:26;6.90;;;6.20;;
16270;SDS011;8243;49.048;8.396;2023-06-22T07:41:53;8.87;;;6.20;;
16270;SDS011;8243;49.048;8.396;2023-06-22T07:44:18;7.20;;;6.50;;
16270;SDS011;8243;49.048;8.396;2023-06-22T07:46:44;7.90;;;6.33;;
16270;SDS011;8243;49.048;8.396;2023-06-22T07:49:09;8.80;;;6.00;;
16270;SDS011;8243;49.048;8.396;2023-06-22T07:51:35;7.00;;;6.07;;
16270;SDS011;8243;49.048;8.396;2023-06-22T07:54:05;6.53;;;5.90;;
16270;SDS011;8243;49.048;8.396;2023-06-22T07:56:30;7.77;;;6.23;;
16270;SDS011;8243;49.048;8.396;2023-06-22T07:58:57;8.47;;;5.97;;
16270;SDS011;8243;49.048;8.396;2023-06-22T08:01:24;6.40;;;5.73;;
16270;SDS011;8243;49.048;8.396;2023-06-22T08:03:49;6.27;;;5.50;;
16270;SDS011;8243;49.048;8.396;2023-06-22T08:06:15;6.40;;;5.67;;
16270;SDS011;8243;49.048;8.396;2023-06-22T08:08:41;7.80;;;5.57;;
16270;SDS011;8243;49.048;8.396;2023-06-22T08:11:07;8.07;;;5.77;;
16270;SDS011;8243;49.048;8.396;2023-06-22T08:13:33;8.20;;;5.53;;
16270;SDS011;8243;49.048;8.396;2023-06-22T08:15:59;8.47;;;5.73;;
16270;SDS011;8243;49.048;8.396;2023-06-22T08:18:24;6.90;;;6.20;;
16270;SDS011;8243;49.048;8.396;2023-06-22T08:20:50;5.70;;;5.20;;
16270;SDS011;8243;49.048;8.396;2023-06-22T08:23:15;7.67;;;5.97;;
16270;SDS011;8243;49.048;8.396;2023-06-22T08:25:41;6.37;;;5.33;;
16270;SDS011;8243;49.048;8.396;2023-06-22T08:28:07;5.37;;;4.63;;
16270;SDS011;8243;49.048;8.396;2023-06-22T08:30:33;5.83;;;4.70;;
16270;SDS011;8243;49.048;8.396;2023-06-22T08:32:58;6.87;;;4.33;;
16270;SDS011;8243;49.048;8.396;2023-06-22T08:35:24;7.97;;;5.10;;
16270;SDS011;8243;49.048;8.396;2023-06-22T08:37:50;6.17;;;4.50;;
16270;SDS011;8243;49.048;8.396;2023-06-22T08:40:20;5.13;;;4.50;;
16270;SDS011;8243;49.048;8.396;2023-06-22T08:42:47;6.33;;;4.53;;
16270;SDS011;8243;49.048;8.396;2023-06-22T08:45:12;6.53;;;4.97;;
16270;SDS011;8243;49.048;8.396;2023-06-22T08:47:39;5.60;;;4.63;;
16270;SDS011;8243;49.048;8.396;2023-06-22T08:50:06;7.67;;;4.60;;
16270;SDS011;8243;49.048;8.396;2023-06-22T08:52:33;7.50;;;5.13;;
16270;SDS011;8243;49.048;8.396;2023-06-22T08:54:59;6.50;;;5.27;;
16270;SDS011;8243;49.048;8.396;2023-06-22T08:57:24;5.80;;;5.10;;
16270;SDS011;8243;49.048;8.396;2023-06-22T08:59:50;9.17;;;5.10;;
16270;SDS011;8243;49.048;8.396;2023-06-22T09:02:17;8.30;;;5.30;;
16270;SDS011;8243;49.048;8.396;2023-06-22T09:04:45;6.73;;;4.77;;
16270;SDS011;8243;49.048;8.396;2023-06-22T09:07:11;7.03;;;5.17;;
16270;SDS011;8243;49.048;8.396;2023-06-22T09:09:36;6.87;;;5.13;;
16270;SDS011;8243;49.048;8.396;2023-06-22T09:12:02;6.13;;;4.70;;
16270;SDS011;8243;49.048;8.396;2023-06-22T09:14:28;6.87;;;5.10;;
16270;SDS011;8243;49.048;8.396;2023-06-22T09:16:53;5.90;;;5.10;;
16270;SDS011;8243;49.048;8.396;2023-06-22T09:19:19;5.47;;;4.93;;
16270;SDS011;8243;49.048;8.396;2023-06-22T09:21:44;5.73;;;5.10;;
16270;SDS011;8243;49.048;8.396;2023-06-22T09:24:10;7.13;;;4.77;;
16270;SDS011;8243;49.048;8.396;2023-06-22T09:26:35;7.10;;;4.87;;
16270;SDS011;8243;49.048;8.396;2023-06-22T09:29:01;6.00;;;4.90;;
16270;SDS011;8243;49.048;8.396;2023-06-22T09:31:29;7.60;;;5.13;;
16270;SDS011;8243;49.048;8.396;2023-06-22T09:33:54;5.90;;;4.50;;
16270;SDS011;8243;49.048;8.396;2023-06-22T09:36:23;5.00;;;4.30;;
16270;SDS011;8243;49.048;8.396;2023-06-22T09:38:49;6.53;;;4.60;;
16270;SDS011;8243;49.048;8.396;2023-06-22T09:41:20;6.30;;;4.77;;
16270;SDS011;8243;49.048;8.396;2023-06-22T09:43:46;9.50;;;5.20;;
16270;SDS011;8243;49.048;8.396;2023-06-22T09:46:14;7.33;;;5.10;;
16270;SDS011;8243;49.048;8.396;2023-06-22T09:48:42;5.83;;;4.33;;
16270;SDS011;8243;49.048;8.396;2023-06-22T09:51:08;6.60;;;5.03;;
16270;SDS011;8243;49.048;8.396;2023-06-22T09:53:34;7.70;;;5.20;;
16270;SDS011;8243;49.048;8.396;2023-06-22T09:55:59;7.53;;;4.77;;
16270;SDS011;8243;49.048;8.396;2023-06-22T09:58:26;6.87;;;4.77;;
16270;SDS011;8243;49.048;8.396;2023-06-22T10:00:52;20.87;;;7.53;;
16270;SDS011;8243;49.048;8.396;2023-06-22T10:03:19;8.50;;;5.10;;
16270;SDS011;8243;49.048;8.396;2023-06-22T10:05:45;8.13;;;4.73;;
16270;SDS011;8243;49.048;8.396;2023-06-22T10:08:10;7.40;;;5.03;;
16270;SDS011;8243;49.048;8.396;2023-06-22T10:10:36;6.40;;;4.47;;
16270;SDS011;8243;49.048;8.396;2023-06-22T10:13:10;12.43;;;4.97;;
16270;SDS011;8243;49.048;8.396;2023-06-22T10:15:36;6.67;;;4.73;;
16270;SDS011;8243;49.048;8.396;2023-06-22T10:18:02;5.17;;;4.37;;
16270;SDS011;8243;49.048;8.396;2023-06-22T10:20:28;7.07;;;5.13;;
16270;SDS011;8243;49.048;8.396;2023-06-22T10:22:54;5.60;;;5.10;;
16270;SDS011;8243;49.048;8.396;2023-06-22T10:25:19;8.50;;;4.70;;
16270;SDS011;8243;49.048;8.396;2023-06-22T10:27:45;5.70;;;4.70;;
16270;SDS011;8243;49.048;8.396;2023-06-22T10:30:11;5.97;;;4.80;;
16270;SDS011;8243;49.048;8.396;2023-06-22T10:32:38;6.53;;;5.20;;
16270;SDS011;8243;49.048;8.396;2023-06-22T10:35:04;9.53;;;5.63;;
16270;SDS011;8243;49.048;8.396;2023-06-22T10:37:30;6.53;;;5.00;;
16270;SDS011;8243;49.048;8.396;2023-06-22T10:39:56;7.83;;;4.93;;
16270;SDS011;8243;49.048;8.396;2023-06-22T10:42:21;6.50;;;4.87;;
16270;SDS011;8243;49.048;8.396;2023-06-22T10:44:47;8.70;;;5.63;;
16270;SDS011;8243;49.048;8.396;2023-06-22T10:47:12;7.27;;;5.40;;
16270;SDS011;8243;49.048;8.396;2023-06-22T10:49:38;7.70;;;5.47;;
16270;SDS011;8243;49.048;8.396;2023-06-22T10:52:05;7.80;;;4.97;;
16270;SDS011;8243;49.048;8.396;2023-06-22T10:54:32;6.10;;;5.23;;
16270;SDS011;8243;49.048;8.396;2023-06-22T10:56:58;7.47;;;5.43;;
16270;SDS011;8243;49.048;8.396;2023-06-22T10:59:24;7.63;;;5.10;;
16270;SDS011;8243;49.048;8.396;2023-06-22T11:01:51;8.93;;;5.47;;
16270;SDS011;8243;49.048;8.396;2023-06-22T11:04:16;7.00;;;4.93;;
16270;SDS011;8243;49.048;8.396;2023-06-22T11:06:42;53.63;;;12.13;;
16270;SDS011;8243;49.048;8.396;2023-06-22T11:09:08;8.07;;;5.07;;
16270;SDS011;8243;49.048;8.396;2023-06-22T11:11:34;10.13;;;5.73;;
16270;SDS011;8243;49.048;8.396;2023-06-22T11:13:59;9.63;;;5.03;;
16270;SDS011;8243;49.048;8.396;2023-06-22T11:16:25;8.00;;;4.97;;
16270;SDS011;8243;49.048;8.396;2023-06-22T11:18:50;6.70;;;5.03;;
16270;SDS011;8243;49.048;8.396;2023-06-22T11:21:16;7.97;;;5.30;;
16270;SDS011;8243;49.048;8.396;2023-06-22T11:23:42;7.07;;;4.70;;
16270;SDS011;8243;49.048;8.396;2023-06-22T11:26:08;7.70;;;5.17;;
16270;SDS011;8243;49.048;8.396;2023-06-22T11:28:33;7.80;;;4.70;;
16270;SDS011;8243;49.048;8.396;2023-06-22T11:30:59;8.03;;;5.00;;
16270;SDS011;8243;49.048;8.396;2023-06-22T11:33:25;8.57;;;5.17;;
16270;SDS011;8243;49.048;8.396;2023-06-22T11:35:50;6.97;;;4.90;;
16270;SDS011;8243;49.048;8.396;2023-06-22T11:38:16;5.87;;;4.87;;
16270;SDS011;8243;49.048;8.396;2023-06-22T11:40:42;9.80;;;5.67;;
16270;SDS011;8243;49.048;8.396;2023-06-22T11:43:07;9.03;;;5.27;;
16270;SDS011;8243;49.048;8.396;2023-06-22T11:45:33;11.47;;;5.40;;
16270;SDS011;8243;49.048;8.396;2023-06-22T11:47:58;8.17;;;5.20;;
16270;SDS011;8243;49.048;8.396;2023-06-22T11:50:24;7.20;;;5.30;;
16270;SDS011;8243;49.048;8.396;2023-06-22T11:52:49;7.97;;;5.40;;
16270;SDS011;8243;49.048;8.396;2023-06-22T11:55:15;11.10;;;5.30;;
16270;SDS011;8243;49.048;8.396;2023-06-22T11:57:52;14.43;;;6.27;;
16270;SDS011;8243;49.048;8.396;2023-06-22T12:00:23;8.77;;;5.17;;
16270;SDS011;8243;49.048;8.396;2023-06-22T12:02:49;8.47;;;5.43;;
16270;SDS011;8243;49.048;8.396;2023-06-22T12:05:21;7.83;;;5.20;;
16270;SDS011;8243;49.048;8.396;2023-06-22T12:07:47;11.60;;;5.23;;
16270;SDS011;8243;49.048;8.396;2023-06-22T12:10:13;9.25;;;5.53;;
16270;SDS011;8243;49.048;8.396;2023-06-22T12:12:40;8.30;;;5.25;;
16270;SDS011;8243;49.048;8.396;2023-06-22T12:15:06;8.70;;;5.60;;
16270;SDS011;8243;49.048;8.396;2023-06-22T12:17:34;7.43;;;5.15;;
16270;SDS011;8243;49.048;8.396;2023-06-22T12:19:59;7.65;;;5.28;;
16270;SDS011;8243;49.048;8.396;2023-06-22T12:22:25;6.90;;;4.95;;
16270;SDS011;8243;49.048;8.396;2023-06-22T12:24:51;7.13;;;4.93;;
16270;SDS011;8243;49.048;8.396;2023-06-22T12:27:19;10.02;;;5.53;;
16270;SDS011;8243;49.048;8.396;2023-06-22T12:29:45;6.78;;;4.85;;
16270;SDS011;8243;49.048;8.396;2023-06-22T12:32:11;7.68;;;4.70;;
16270;SDS011;8243;49.048;8.396;2023-06-22T12:34:38;8.60;;;5.47;;
16270;SDS011;8243;49.048;8.396;2023-06-22T12:37:04;9.00;;;4.97;;
16270;SDS011;8243;49.048;8.396;2023-06-22T12:39:31;6.95;;;5.20;;
16270;SDS011;8243;49.048;8.396;2023-06-22T12:41:57;8.00;;;4.97;;
16270;SDS011;8243;49.048;8.396;2023-06-22T12:44:22;6.07;;;4.97;;
16270;SDS011;8243;49.048;8.396;2023-06-22T12:46:48;7.00;;;5.40;;
16270;SDS011;8243;49.048;8.396;2023-06-22T12:49:13;6.93;;;5.05;;
16270;SDS011;8243;49.048;8.396;2023-06-22T12:51:39;6.88;;;5.18;;
16270;SDS011;8243;49.048;8.396;2023-06-22T12:54:07;8.30;;;4.93;;
16270;SDS011;8243;49.048;8.396;2023-06-22T12:56:33;7.55;;;5.28;;
16270;SDS011;8243;49.048;8.396;2023-06-22T12:58:59;8.77;;;5.32;;
16270;SDS011;8243;49.048;8.396;2023-06-22T13:01:26;8.40;;;4.93;;
16270;SDS011;8243;49.048;8.396;2023-06-22T13:03:52;7.25;;;4.95;;
16270;SDS011;8243;49.048;8.396;2023-06-22T13:06:18;7.88;;;5.30;;
16270;SDS011;8243;49.048;8.396;2023-06-22T13:08:44;7.57;;;5.07;;
16270;SDS011;8243;49.048;8.396;2023-06-22T13:11:09;7.75;;;5.45;;
16270;SDS011;8243;49.048;8.396;2023-06-22T13:13:35;8.25;;;5.43;;
16270;SDS011;8243;49.048;8.396;2023-06-22T13:16:00;7.22;;;5.20;;
16270;SDS011;8243;49.048;8.396;2023-06-22T13:18:26;7.85;;;5.07;;
16270;SDS011;8243;49.048;8.396;2023-06-22T13:20:52;9.90;;;5.10;;
16270;SDS011;8243;49.048;8.396;2023-06-22T13:23:19;6.85;;;4.78;;
16270;SDS011;8243;49.048;8.396;2023-06-22T13:25:46;9.30;;;5.63;;
16270;SDS011;8243;49.048;8.396;2023-06-22T13:28:11;6.70;;;5.03;;
16270;SDS011;8243;49.048;8.396;2023-06-22T13:30:39;6.82;;;5.05;;
16270;SDS011;8243;49.048;8.396;2023-06-22T13:33:05;8.38;;;5.47;;
16270;SDS011;8243;49.048;8.396;2023-06-22T13:35:30;11.75;;;5.50;;
16270;SDS011;8243;49.048;8.396;2023-06-22T13:37:56;6.63;;;5.45;;
16270;SDS011;8243;49.048;8.396;2023-06-22T13:40:21;9.85;;;5.78;;
16270;SDS011;8243;49.048;8.396;2023-06-22T13:42:47;7.70;;;5.40;;
16270;SDS011;8243;49.048;8.396;2023-06-22T13:45:13;10.95;;;5.55;;
16270;SDS011;8243;49.048;8.396;2023-06-22T13:47:39;7.15;;;5.43;;
16270;SDS011;8243;49.048;8.396;2023-06-22T13:50:04;11.38;;;5.47;;
16270;SDS011;8243;49.048;8.396;2023-06-22T13:52:30;7.80;;;5.75;;
16270;SDS011;8243;49.048;8.396;2023-06-22T13:54:56;9.20;;;5.75;;
16270;SDS011;8243;49.048;8.396;2023-06-22T13:57:21;8.25;;;5.55;;
16270;SDS011;8243;49.048;8.396;2023-06-22T13:59:47;10.75;;;5.95;;
16270;SDS011;8243;49.048;8.396;2023-06-22T14:02:13;9.52;;;5.97;;
16270;SDS011;8243;49.048;8.396;2023-06-22T14:04:39;9.70;;;5.30;;
16270;SDS011;8243;49.048;8.396;2023-06-22T14:07:04;6.07;;;5.07;;
16270;SDS011;8243;49.048;8.396;2023-06-22T14:09:30;10.15;;;5.57;;
16270;SDS011;8243;49.048;8.396;2023-06-22T14:11:56;10.87;;;5.67;;
16270;SDS011;8243;49.048;8.396;2023-06-22T14:14:21;8.20;;;5.27;;
16270;SDS011;8243;49.048;8.396;2023-06-22T14:16:47;9.03;;;5.90;;
16270;SDS011;8243;49.048;8.396;2023-06-22T14:19:14;8.43;;;5.27;;
16270;SDS011;8243;49.048;8.396;2023-06-22T14:21:42;11.17;;;5.90;;
16270;SDS011;8243;49.048;8.396;2023-06-22T14:24:07;11.03;;;6.03;;
16270;SDS011;8243;49.048;8.396;2023-06-22T14:26:33;12.50;;;5.93;;
16270;SDS011;8243;49.048;8.396;2023-06-22T14:28:58;8.10;;;5.57;;
16270;SDS011;8243;49.048;8.396;2023-06-22T14:31:24;8.80;;;5.73;;
16270;SDS011;8243;49.048;8.396;2023-06-22T14:33:49;11.00;;;5.80;;
16270;SDS011;8243;49.048;8.396;2023-06-22T14:36:15;11.30;;;5.90;;
16270;SDS011;8243;49.048;8.396;2023-06-22T14:38:42;22.97;;;9.17;;
16270;SDS011;8243;49.048;8.396;2023-06-22T14:41:08;10.47;;;7.53;;
16270;SDS011;8243;49.048;8.396;2023-06-22T14:43:34;10.97;;;5.83;;
16270;SDS011;8243;49.048;8.396;2023-06-22T14:45:59;8.33;;;6.20;;
16270;SDS011;8243;49.048;8.396;2023-06-22T14:48:31;10.33;;;6.27;;
16270;SDS011;8243;49.048;8.396;2023-06-22T14:50:58;8.83;;;6.13;;
16270;SDS011;8243;49.048;8.396;2023-06-22T14:53:25;10.13;;;6.07;;
16270;SDS011;8243;49.048;8.396;2023-06-22T14:55:51;7.53;;;5.77;;
16270;SDS011;8243;49.048;8.396;2023-06-22T14:58:16;10.63;;;6.23;;